Time;durP1;ratioP1;P1;durP2;ratioP2;P2;SDS_P1;SDS_P2;PMS_P1;PMS_P2;Temp;Humidity;BMP_temperature;BMP_pressure;BME280_temperature;BME280_humidity;BME280_pressure;Samples;Min_cycle;Max_cycle;Signal;HPM_P1;HPM_P2
2021/01/04 00:02:25;;;;;;;7.93;5.13;;;4.30;85.00;;;;;;4956322;28;20034;-94
2021/01/04 00:09:09;;;;;;;;;;;;;;;;;;;;;
2021/01/04 00:13:04;;;;;;;;;;;;;;;;;;;;;
2021/01/04 00:15:20;;;;;;;7.63;5.22;;;4.30;85.10;;;;;;4962556;28;20038;-95
2021/01/04 00:18:09;;;;;;;8.60;5.90;;;4.30;85.10;;;;;;4972421;28;20079;-95
2021/01/04 00:20:48;;;;;;;6.95;5.00;;;4.30;85.10;;;;;;4993252;28;20103;-94
2021/01/04 00:23:40;;;;;;;7.85;5.40;;;4.30;85.20;;;;;;4969709;28;20024;-93
2021/01/04 00:26:45;;;;;;;7.78;4.85;;;4.30;85.30;;;;;;4958315;29;20039;-94
2021/01/04 00:29:20;;;;;;;7.50;5.13;;;4.30;85.20;;;;;;4966255;28;20039;-93
2021/01/04 00:31:51;;;;;;;8.45;5.18;;;4.30;85.20;;;;;;4956758;28;20495;-92
2021/01/04 00:34:23;;;;;;;11.25;5.88;;;4.30;85.20;;;;;;4951860;28;20032;-93
2021/01/04 00:37:20;;;;;;;9.15;6.22;;;4.30;85.20;;;;;;4952387;28;20094;-94
2021/01/04 00:40:11;;;;;;;6.38;4.63;;;4.30;85.20;;;;;;4947958;28;20086;-95
2021/01/04 00:42:42;;;;;;;6.28;4.07;;;4.40;85.30;;;;;;4950685;29;20054;-95
2021/01/04 00:45:17;;;;;;;9.55;6.38;;;4.40;85.10;;;;;;4957030;28;20038;-96
2021/01/04 00:48:08;;;;;;;7.55;5.15;;;4.40;85.10;;;;;;4953653;28;20035;-95
2021/01/04 00:50:53;;;;;;;8.20;5.82;;;4.40;85.20;;;;;;4958699;29;20026;-95
2021/01/04 00:53:25;;;;;;;9.23;6.20;;;4.40;85.20;;;;;;4970281;28;20032;-96
2021/01/04 00:56:46;;;;;;;;;;;;;;;;;;;;;
2021/01/04 00:59:39;;;;;;;7.82;4.93;;;4.40;85.40;;;;;;4956348;28;20062;-95
2021/01/04 01:03:05;;;;;;;8.45;5.57;;;4.40;85.40;;;;;;4978953;28;20019;-95
2021/01/04 01:06:01;;;;;;;8.43;5.75;;;4.40;85.50;;;;;;4957028;29;20027;-95
2021/01/04 01:08:40;;;;;;;6.88;3.95;;;4.40;85.50;;;;;;4967761;28;20031;-94
2021/01/04 01:11:16;;;;;;;7.35;5.40;;;4.40;85.50;;;;;;4958086;28;20109;-96
2021/01/04 01:14:12;;;;;;;6.18;4.32;;;4.40;85.40;;;;;;4955490;28;20625;-93
2021/01/04 01:17:50;;;;;;;;;;;;;;;;;;;;;
2021/01/04 01:20:15;;;;;;;7.93;5.57;;;4.50;85.90;;;;;;4940273;29;20031;-93
2021/01/04 01:25:39;;;;;;;5.93;3.70;;;4.50;85.30;;;;;;4952476;28;20163;-95
2021/01/04 01:28:52;;;;;;;;;;;;;;;;;;;;;
2021/01/04 01:31:34;;;;;;;;;;;4.50;85.30;;;;;;4962584;28;20087;-94
2021/01/04 01:34:10;;;;;;;6.88;5.13;;;4.50;85.30;;;;;;4944335;28;19911;-93
2021/01/04 01:37:06;;;;;;;5.80;3.78;;;4.40;85.30;;;;;;4972554;28;20055;-94
2021/01/04 01:40:01;;;;;;;9.60;6.25;;;4.50;85.40;;;;;;4957102;28;20047;-93
2021/01/04 01:42:48;;;;;;;7.93;5.70;;;4.40;85.50;;;;;;4953458;28;20031;-93
2021/01/04 01:45:23;;;;;;;6.53;4.25;;;4.30;85.60;;;;;;4954001;28;20034;-93
2021/01/04 01:48:09;;;;;;;8.15;6.28;;;4.30;85.60;;;;;;4956287;28;20094;-94
2021/01/04 01:50:59;;;;;;;9.00;6.50;;;4.40;85.60;;;;;;4953726;28;20038;-95
2021/01/04 01:53:40;;;;;;;6.15;4.47;;;4.30;85.70;;;;;;4967847;28;20078;-93
2021/01/04 01:56:12;;;;;;;7.43;5.40;;;4.40;85.70;;;;;;4952362;28;20035;-94
2021/01/04 01:59:34;;;;;;;;;;;;;;;;;;;;;
2021/01/04 02:02:22;;;;;;;6.28;4.50;;;4.30;85.60;;;;;;4959302;28;20081;-94
2021/01/04 02:05:17;;;;;;;6.10;4.53;;;4.30;85.60;;;;;;4972349;28;20477;-94
2021/01/04 02:08:07;;;;;;;9.73;6.93;;;4.30;85.60;;;;;;4956685;28;20504;-94
2021/01/04 02:10:42;;;;;;;9.15;5.82;;;4.30;85.80;;;;;;4954984;29;20078;-95
2021/01/04 02:13:19;;;;;;;8.18;5.60;;;4.20;85.90;;;;;;4952925;29;20580;-95
2021/01/04 02:16:14;;;;;;;8.73;5.60;;;4.20;86.00;;;;;;4955756;28;20031;-94
2021/01/04 02:19:17;;;;;;;6.05;4.50;;;4.20;86.20;;;;;;4955412;29;20042;-95
2021/01/04 02:21:43;;;;;;;;;;;4.30;86.20;;;;;;4979504;28;20033;-93
2021/01/04 02:24:10;;;;;;;7.53;5.50;;;4.30;86.00;;;;;;4956216;28;19989;-94
2021/01/04 02:26:42;;;;;;;5.85;4.45;;;4.20;86.10;;;;;;4946412;28;20035;-95
2021/01/04 02:29:19;;;;;;;9.13;6.10;;;4.20;86.10;;;;;;4953644;29;20015;-94
2021/01/04 02:31:56;;;;;;;6.35;4.50;;;4.20;86.20;;;;;;4977629;28;20034;-94
2021/01/04 02:34:27;;;;;;;6.10;4.35;;;4.20;86.40;;;;;;4976158;28;20020;-95
2021/01/04 02:36:55;;;;;;;7.05;5.40;;;4.10;86.30;;;;;;5060556;23;20106;-95
2021/01/04 02:39:41;;;;;;;4.80;3.78;;;4.20;86.30;;;;;;5013245;28;20121;-95
2021/01/04 02:42:12;;;;;;;7.07;5.68;;;4.20;86.30;;;;;;5013751;28;20069;-95
2021/01/04 02:51:18;;;;;;;;;;;;;;;;;;;;;
2021/01/04 02:58:04;;;;;;;;;;;;;;;;;;;;;
2021/01/04 03:04:29;;;;;;;;;;;;;;;;;;;;;
2021/01/04 03:21:03;;;;;;;6.13;4.40;;;3.90;86.50;;;;;;4988373;28;20034;-95
2021/01/04 03:23:42;;;;;;;;;;;;;;;;;;;;;
2021/01/04 03:26:59;;;;;;;6.18;5.00;;;4.10;86.50;;;;;;5017941;28;20010;-94
2021/01/04 03:30:23;;;;;;;;;;;;;;;;;;;;;
2021/01/04 03:33:26;;;;;;;6.55;5.25;;;4.10;86.40;;;;;;4948753;28;20131;-94
2021/01/04 03:54:10;;;;;;;;;;;;;;;;;;;;;
2021/01/04 05:27:21;;;;;;;6.85;5.55;;;4.10;86.90;;;;;;5805079;23;20253;31
2021/01/04 05:30:50;;;;;;;9.13;6.40;;;4.10;86.90;;;;;;4988441;28;20084;-95
2021/01/04 05:33:46;;;;;;;;;;;;;;;;;;;;;
2021/01/04 05:36:42;;;;;;;6.70;4.75;;;4.00;87.30;;;;;;4947722;28;20110;-96
2021/01/04 05:39:21;;;;;;;6.53;4.25;;;4.10;87.50;;;;;;4956049;28;20128;-90
2021/01/04 05:41:59;;;;;;;5.22;3.83;;;4.00;87.40;;;;;;4939127;29;20121;-93
2021/01/04 05:44:56;;;;;;;6.43;4.82;;;4.00;87.50;;;;;;4955424;28;20039;-93
2021/01/04 05:47:42;;;;;;;6.68;5.20;;;4.10;87.40;;;;;;4954106;28;20027;-96
2021/01/04 05:50:31;;;;;;;4.43;3.40;;;4.10;87.30;;;;;;4979680;28;20126;-96
2021/01/04 05:52:57;;;;;;;7.70;5.22;;;4.20;87.40;;;;;;4965084;28;20043;-96
2021/01/04 05:55:23;;;;;;;7.45;5.28;;;4.10;87.10;;;;;;4972520;28;20079;-96
2021/01/04 05:57:53;;;;;;;8.00;5.65;;;4.10;87.10;;;;;;4974726;29;20031;-95
2021/01/04 06:00:28;;;;;;;8.13;6.20;;;4.10;87.20;;;;;;5287793;23;20048;-95
2021/01/04 06:03:20;;;;;;;7.82;5.85;;;4.10;87.50;;;;;;5016317;28;20030;-95
2021/01/04 06:05:53;;;;;;;4.95;3.30;;;4.00;87.50;;;;;;5010344;28;20046;-95
2021/01/04 06:08:31;;;;;;;;;;;4.00;87.50;;;;;;5025100;28;20090;-94
2021/01/04 06:11:10;;;;;;;7.50;5.63;;;4.00;87.50;;;;;;5035559;28;19916;-95
2021/01/04 06:13:40;;;;;;;5.50;4.05;;;4.00;87.70;;;;;;5010103;28;20057;-93
2021/01/04 06:16:25;;;;;;;6.75;4.15;;;4.00;87.60;;;;;;4993195;28;20057;-91
2021/01/04 06:18:58;;;;;;;5.40;3.85;;;4.00;87.50;;;;;;4993624;28;20038;-91
2021/01/04 06:21:50;;;;;;;5.15;4.10;;;4.00;87.40;;;;;;5009132;28;20093;-92
2021/01/04 06:24:31;;;;;;;7.23;5.37;;;4.10;87.30;;;;;;4998894;28;20031;-90
2021/01/04 06:27:08;;;;;;;6.25;4.00;;;4.10;87.20;;;;;;4994727;28;20282;-90
2021/01/04 06:29:45;;;;;;;6.80;4.60;;;4.10;87.30;;;;;;5011179;28;20033;-90
2021/01/04 06:32:34;;;;;;;6.32;4.78;;;4.00;87.20;;;;;;5009368;28;20092;-96
2021/01/04 06:35:04;;;;;;;4.28;3.13;;;4.10;87.30;;;;;;5009065;28;20041;-88
2021/01/04 06:37:32;;;;;;;5.40;3.60;;;4.10;87.30;;;;;;5011768;28;20030;-87
2021/01/04 06:40:18;;;;;;;6.85;4.63;;;4.10;87.20;;;;;;5007828;28;20023;-88
2021/01/04 06:42:43;;;;;;;6.30;4.28;;;4.10;87.20;;;;;;5026050;28;20045;-88
2021/01/04 06:45:47;;;;;;;8.43;5.68;;;4.10;87.10;;;;;;5010946;28;20348;-89
2021/01/04 06:48:24;;;;;;;9.10;6.32;;;4.10;87.10;;;;;;4997858;28;20059;-90
2021/01/04 06:51:31;;;;;;;8.52;6.32;;;4.10;87.10;;;;;;5011406;28;20033;-89
2021/01/04 06:54:19;;;;;;;6.75;4.65;;;4.00;87.20;;;;;;5013719;28;20040;-88
2021/01/04 06:57:07;;;;;;;7.68;6.18;;;4.00;87.20;;;;;;5012395;28;20049;-89
2021/01/04 06:59:42;;;;;;;8.82;6.05;;;4.00;87.30;;;;;;5020018;28;20108;-88
2021/01/04 07:02:45;;;;;;;7.78;5.22;;;4.00;87.30;;;;;;5023145;28;20013;-87
2021/01/04 07:05:35;;;;;;;9.77;7.32;;;4.10;87.30;;;;;;5029818;28;20034;-93
2021/01/04 07:08:37;;;;;;;8.13;5.70;;;4.00;87.30;;;;;;5029315;28;20029;-92
2021/01/04 07:11:31;;;;;;;10.25;7.10;;;4.10;87.30;;;;;;5026651;28;20123;-90
2021/01/04 07:14:15;;;;;;;7.30;5.38;;;4.00;87.30;;;;;;5026905;28;20041;-91
2021/01/04 07:17:04;;;;;;;8.05;5.05;;;3.90;87.40;;;;;;5012477;28;20034;-91
2021/01/04 07:19:49;;;;;;;9.43;6.60;;;4.00;87.40;;;;;;5004656;28;20056;-89
2021/01/04 07:22:49;;;;;;;7.18;4.93;;;4.00;87.30;;;;;;5001367;28;20124;-88
2021/01/04 07:25:53;;;;;;;7.35;5.35;;;4.00;87.40;;;;;;5011346;28;20045;-93
2021/01/04 07:28:47;;;;;;;8.20;5.72;;;4.00;87.40;;;;;;4999309;28;20108;-92
2021/01/04 07:31:39;;;;;;;12.90;8.90;;;4.00;87.40;;;;;;5014428;28;20048;-92
2021/01/04 07:34:19;;;;;;;10.98;7.20;;;4.00;87.40;;;;;;5006440;28;20116;-93
2021/01/04 07:36:50;;;;;;;6.80;5.20;;;3.90;87.70;;;;;;5015206;28;20026;-90
2021/01/04 07:39:37;;;;;;;7.78;5.32;;;3.90;87.80;;;;;;5011950;28;20489;-91
2021/01/04 07:42:46;;;;;;;9.85;7.82;;;4.00;87.80;;;;;;5008228;28;20026;-92
2021/01/04 07:45:30;;;;;;;7.38;4.80;;;3.90;87.80;;;;;;5000210;28;20843;-90
2021/01/04 07:48:29;;;;;;;10.15;7.03;;;4.00;87.80;;;;;;5006198;28;20025;-91
2021/01/04 07:50:55;;;;;;;8.55;5.40;;;3.90;87.70;;;;;;4998950;28;20396;-92
2021/01/04 07:53:42;;;;;;;7.50;5.30;;;3.90;87.90;;;;;;4996445;28;20018;-88
2021/01/04 07:56:31;;;;;;;7.50;5.18;;;3.90;87.90;;;;;;5009134;28;20026;-93
2021/01/04 07:59:29;;;;;;;10.80;8.23;;;3.90;88.00;;;;;;5004530;28;20030;-89
2021/01/04 08:02:23;;;;;;;8.30;5.63;;;3.90;87.90;;;;;;5013544;28;20030;-91
2021/01/04 08:05:09;;;;;;;8.90;6.03;;;3.90;88.20;;;;;;5021297;28;20058;-90
2021/01/04 08:08:16;;;;;;;10.48;6.80;;;3.80;88.10;;;;;;4996270;28;20077;-90
2021/01/04 08:11:02;;;;;;;9.75;7.13;;;3.90;88.30;;;;;;5007718;28;20034;-91
2021/01/04 08:14:07;;;;;;;7.25;5.25;;;3.80;88.20;;;;;;5002975;28;20121;-90
2021/01/04 08:16:51;;;;;;;5.97;4.03;;;3.90;88.30;;;;;;4998946;28;20026;-90
2021/01/04 08:19:18;;;;;;;10.00;6.00;;;4.00;88.20;;;;;;5010459;28;20026;-88
2021/01/04 08:22:28;;;;;;;8.80;5.63;;;4.00;88.10;;;;;;5016231;28;20022;-87
2021/01/04 08:25:06;;;;;;;11.18;7.50;;;4.00;88.10;;;;;;4972266;28;20089;-89
2021/01/04 08:27:50;;;;;;;6.95;5.30;;;4.00;88.00;;;;;;4997373;28;20557;-91
2021/01/04 08:30:25;;;;;;;8.30;5.25;;;4.00;88.20;;;;;;5001902;28;20021;-88
2021/01/04 08:33:34;;;;;;;9.82;6.50;;;4.00;88.20;;;;;;4998999;28;20045;-90
2021/01/04 08:36:02;;;;;;;9.82;7.28;;;4.00;88.00;;;;;;5010501;28;20026;-90
2021/01/04 08:38:34;;;;;;;9.23;5.55;;;4.00;88.10;;;;;;5007525;28;20034;-90
2021/01/04 08:41:23;;;;;;;11.10;7.97;;;4.00;88.30;;;;;;5008517;28;20054;-91
2021/01/04 08:44:10;;;;;;;6.15;4.65;;;4.00;88.40;;;;;;5004077;28;20029;-91
2021/01/04 08:46:38;;;;;;;9.82;6.05;;;4.00;88.40;;;;;;5009646;28;20033;-91
2021/01/04 08:49:29;;;;;;;7.70;5.75;;;4.10;88.40;;;;;;5013623;28;20026;-91
2021/01/04 08:51:55;;;;;;;9.55;6.30;;;4.10;88.30;;;;;;4996001;28;20109;-91
2021/01/04 08:54:31;;;;;;;6.68;5.07;;;4.10;88.20;;;;;;4996717;28;20102;-88
2021/01/04 08:57:05;;;;;;;8.48;5.20;;;4.10;88.20;;;;;;5004225;28;20042;-90
2021/01/04 08:59:34;;;;;;;7.88;5.10;;;4.10;88.30;;;;;;5015404;28;20273;-90
2021/01/04 09:02:24;;;;;;;7.50;4.43;;;4.10;88.30;;;;;;5004965;28;20112;-91
2021/01/04 09:05:07;;;;;;;7.40;4.80;;;4.20;88.40;;;;;;5005749;28;20033;-88
2021/01/04 09:07:44;;;;;;;7.30;4.80;;;4.20;88.20;;;;;;5011570;28;20125;-90
2021/01/04 09:10:27;;;;;;;8.25;5.68;;;4.20;88.00;;;;;;4997658;28;20538;-90
2021/01/04 09:13:05;;;;;;;7.72;5.03;;;4.20;88.00;;;;;;5006903;28;20034;-91
2021/01/04 09:15:40;;;;;;;7.95;5.68;;;4.20;87.80;;;;;;5000128;28;20022;-90
2021/01/04 09:18:36;;;;;;;6.95;4.47;;;4.20;88.00;;;;;;5003096;28;20054;-91
2021/01/04 09:21:47;;;;;;;7.03;4.22;;;4.20;88.10;;;;;;5004397;28;20040;-90
2021/01/04 09:24:34;;;;;;;6.35;4.82;;;4.30;88.00;;;;;;4993744;28;20088;-91
2021/01/04 09:27:27;;;;;;;10.57;6.63;;;4.40;88.00;;;;;;5009034;28;20054;-90
2021/01/04 09:30:02;;;;;;;7.85;4.75;;;4.30;87.80;;;;;;5010305;28;20049;-89
2021/01/04 09:32:40;;;;;;;7.38;4.35;;;4.30;87.70;;;;;;5002219;28;20026;-89
2021/01/04 09:35:15;;;;;;;9.10;6.35;;;4.40;87.70;;;;;;5024153;28;20014;-89
2021/01/04 09:37:42;;;;;;;10.95;6.05;;;4.30;87.60;;;;;;5020052;28;20037;-90
2021/01/04 09:40:19;;;;;;;10.55;6.00;;;4.30;88.50;;;;;;5011157;28;20030;-90
2021/01/04 09:42:46;;;;;;;10.45;6.10;;;4.30;88.00;;;;;;5005434;28;20048;-88
2021/01/04 09:45:18;;;;;;;9.55;6.43;;;4.40;88.00;;;;;;5006509;28;20065;-89
2021/01/04 09:47:54;;;;;;;9.73;5.60;;;4.40;87.90;;;;;;5004098;28;20538;-89
2021/01/04 09:50:29;;;;;;;8.35;4.90;;;4.40;87.80;;;;;;5004407;28;20487;-89
2021/01/04 09:53:19;;;;;;;10.27;6.05;;;4.40;87.90;;;;;;5009410;28;20033;-90
2021/01/04 09:55:46;;;;;;;11.43;6.78;;;4.40;87.90;;;;;;5012981;28;20045;-88
2021/01/04 09:58:14;;;;;;;7.03;5.20;;;4.30;87.90;;;;;;5014667;28;20053;-87
2021/01/04 10:00:40;;;;;;;7.20;4.53;;;4.40;87.90;;;;;;5015912;28;20553;-88
2021/01/04 10:03:19;;;;;;;8.05;5.55;;;4.40;87.80;;;;;;5009678;28;20113;-90
2021/01/04 10:05:48;;;;;;;6.50;4.60;;;4.40;87.70;;;;;;5001920;28;20030;-89
2021/01/04 10:08:36;;;;;;;8.63;5.65;;;4.40;87.80;;;;;;5004935;28;20082;-96
2021/01/04 10:11:08;;;;;;;8.32;5.32;;;4.50;87.90;;;;;;4999534;28;20106;-88
2021/01/04 10:13:40;;;;;;;7.63;4.80;;;4.40;87.80;;;;;;4999154;28;20042;-88
2021/01/04 10:16:14;;;;;;;9.05;5.85;;;4.50;87.90;;;;;;5000707;28;20034;-89
2021/01/04 10:19:12;;;;;;;6.10;4.28;;;4.50;87.70;;;;;;4995332;28;20388;-85
2021/01/04 10:21:55;;;;;;;5.57;3.83;;;4.50;87.70;;;;;;4992958;28;20027;-85
2021/01/04 10:24:32;;;;;;;5.80;4.28;;;4.50;87.80;;;;;;4998546;28;20022;-86
2021/01/04 10:27:05;;;;;;;6.65;4.72;;;4.50;87.50;;;;;;4995742;28;20033;-86
2021/01/04 10:29:31;;;;;;;7.00;4.93;;;4.60;87.50;;;;;;4995476;28;20105;-84
2021/01/04 10:32:28;;;;;;;8.02;4.88;;;4.60;87.40;;;;;;4996705;28;20391;-86
2021/01/04 10:34:54;;;;;;;7.22;4.60;;;4.60;87.40;;;;;;4998502;28;21064;-85
2021/01/04 10:37:47;;;;;;;5.93;4.03;;;4.60;87.40;;;;;;5001437;28;20034;-86
2021/01/04 10:40:20;;;;;;;6.47;4.72;;;4.60;87.30;;;;;;4997268;28;20030;-87
2021/01/04 10:42:46;;;;;;;;;;;4.60;87.20;;;;;;4998929;28;20030;-86
2021/01/04 10:45:16;;;;;;;5.60;3.90;;;4.50;87.00;;;;;;4999007;28;19924;-86
2021/01/04 10:47:50;;;;;;;7.00;4.10;;;4.50;87.20;;;;;;5001447;28;20033;-83
2021/01/04 10:50:20;;;;;;;7.28;4.45;;;4.50;87.20;;;;;;4997327;28;20046;-87
2021/01/04 10:52:55;;;;;;;8.07;5.30;;;4.50;87.20;;;;;;5001956;28;20066;-85
2021/01/04 10:55:23;;;;;;;5.80;3.70;;;4.50;87.20;;;;;;5001062;28;20066;-88
2021/01/04 10:57:54;;;;;;;5.18;3.70;;;4.50;87.30;;;;;;4995156;28;20046;-87
2021/01/04 11:00:28;;;;;;;4.70;3.17;;;4.50;87.20;;;;;;5000830;28;20048;-89
2021/01/04 11:03:06;;;;;;;6.40;4.00;;;4.50;87.20;;;;;;4997889;28;20026;-90
2021/01/04 11:05:39;;;;;;;4.57;3.70;;;4.60;87.10;;;;;;5009779;28;20029;-90
2021/01/04 11:08:09;;;;;;;4.32;3.25;;;4.50;87.00;;;;;;5011695;28;20034;-89
2021/01/04 11:10:35;;;;;;;4.25;2.83;;;4.60;87.10;;;;;;5004579;28;20026;-88
2021/01/04 11:13:01;;;;;;;5.75;4.10;;;4.60;87.00;;;;;;5029014;28;20040;-89
2021/01/04 11:15:30;;;;;;;4.30;2.80;;;4.60;86.90;;;;;;5026777;28;20029;-89
2021/01/04 11:18:09;;;;;;;7.38;4.40;;;4.70;86.90;;;;;;5017484;28;20049;-89
2021/01/04 11:20:37;;;;;;;4.28;2.80;;;4.60;86.80;;;;;;5001332;28;20069;-90
2021/01/04 11:23:11;;;;;;;4.88;3.55;;;4.60;86.90;;;;;;5021499;28;20033;-89
2021/01/04 11:25:40;;;;;;;4.00;2.97;;;4.50;86.90;;;;;;5026527;28;20042;-89
2021/01/04 11:28:06;;;;;;;5.03;3.55;;;4.60;86.90;;;;;;5032694;28;20053;-87
2021/01/04 11:30:31;;;;;;;5.22;3.70;;;4.60;86.90;;;;;;5015522;28;20011;-90
2021/01/04 11:33:03;;;;;;;5.53;3.63;;;4.60;86.80;;;;;;5016428;28;20031;-90
2021/01/04 11:35:30;;;;;;;3.97;3.03;;;4.60;86.80;;;;;;5010924;28;20022;-87
2021/01/04 11:37:58;;;;;;;4.78;3.10;;;4.60;86.70;;;;;;5007387;28;20343;-87
2021/01/04 11:40:24;;;;;;;4.90;3.42;;;4.60;86.70;;;;;;4995867;28;20252;-89
2021/01/04 11:42:51;;;;;;;5.63;3.80;;;4.60;86.70;;;;;;5003948;28;20256;-88
2021/01/04 11:45:19;;;;;;;4.15;3.30;;;4.60;86.60;;;;;;5007098;28;20022;-87
2021/01/04 11:47:47;;;;;;;5.82;4.40;;;4.60;86.70;;;;;;5000052;28;20034;-88
2021/01/04 11:50:15;;;;;;;4.75;3.53;;;4.60;86.50;;;;;;5004458;28;20034;-88
2021/01/04 11:52:41;;;;;;;4.07;3.38;;;4.60;86.60;;;;;;5003147;28;20476;-86
2021/01/04 11:55:12;;;;;;;4.80;3.60;;;4.60;86.60;;;;;;5000409;28;20036;-92
2021/01/04 11:57:38;;;;;;;4.60;3.83;;;4.60;86.70;;;;;;5004676;28;20184;-88
2021/01/04 12:00:11;;;;;;;7.05;3.92;;;4.60;86.50;;;;;;5005096;28;20030;-88
2021/01/04 12:02:36;;;;;;;4.28;2.85;;;4.50;86.50;;;;;;5007769;28;20499;-89
2021/01/04 12:05:08;;;;;;;4.60;3.47;;;4.50;86.50;;;;;;5001690;28;20030;-89
2021/01/04 12:07:34;;;;;;;6.15;4.00;;;4.50;86.50;;;;;;5002100;28;20452;-89
2021/01/04 12:10:00;;;;;;;6.55;3.92;;;4.60;86.50;;;;;;5000266;28;20021;-92
2021/01/04 12:12:26;;;;;;;4.50;2.90;;;4.40;86.40;;;;;;4999262;28;20030;-87
2021/01/04 12:14:53;;;;;;;4.93;3.17;;;4.60;86.50;;;;;;5009197;28;20010;-88
2021/01/04 12:17:21;;;;;;;4.22;3.25;;;4.50;86.30;;;;;;5000378;28;20030;-90
2021/01/04 12:19:47;;;;;;;4.00;3.50;;;4.50;86.40;;;;;;5006774;28;20029;-92
2021/01/04 12:22:12;;;;;;;4.40;3.00;;;4.60;86.50;;;;;;4998710;28;20558;-90
2021/01/04 12:24:39;;;;;;;4.53;3.30;;;4.40;86.20;;;;;;5002367;28;20040;-89
2021/01/04 12:27:06;;;;;;;4.78;3.58;;;4.60;86.30;;;;;;5009915;28;20022;-88
2021/01/04 12:29:32;;;;;;;4.88;3.72;;;4.50;86.30;;;;;;4995066;28;20022;-89
2021/01/04 12:31:58;;;;;;;5.28;3.58;;;4.40;86.20;;;;;;5007331;28;20053;-88
2021/01/04 12:34:24;;;;;;;4.07;3.40;;;4.50;86.20;;;;;;5005007;28;20026;-87
2021/01/04 12:36:49;;;;;;;4.60;3.40;;;4.40;86.20;;;;;;5021216;28;20034;-90
2021/01/04 12:39:15;;;;;;;4.00;2.80;;;4.40;86.10;;;;;;5012657;28;20053;-88
2021/01/04 12:41:42;;;;;;;4.32;3.30;;;4.40;86.10;;;;;;5008644;28;20369;-89
2021/01/04 12:44:09;;;;;;;2.88;2.50;;;4.40;86.10;;;;;;5004462;28;20041;-91
2021/01/04 12:46:47;;;;;;;4.45;3.65;;;4.60;86.10;;;;;;5005380;28;20352;-90
2021/01/04 12:49:16;;;;;;;3.53;2.63;;;4.50;85.90;;;;;;5004627;28;20045;-89
2021/01/04 12:51:49;;;;;;;3.40;2.90;;;4.50;85.90;;;;;;5004113;28;20033;-91
2021/01/04 12:54:23;;;;;;;4.13;3.15;;;4.50;85.90;;;;;;5007476;28;20116;-90
2021/01/04 12:57:02;;;;;;;;;;;;;;;;;;;;;
2021/01/04 12:59:29;;;;;;;4.75;3.60;;;4.40;85.80;;;;;;5008477;28;20030;-89
2021/01/04 13:01:56;;;;;;;5.93;3.47;;;4.40;85.60;;;;;;5002928;28;20084;-93
2021/01/04 13:04:26;;;;;;;5.80;3.50;;;4.40;85.40;;;;;;5000423;28;20030;-92
2021/01/04 13:06:54;;;;;;;4.13;2.97;;;4.30;85.40;;;;;;5007452;28;20221;-91
2021/01/04 13:09:20;;;;;;;3.28;2.67;;;4.30;85.60;;;;;;5004605;28;20068;-91
2021/01/04 13:11:47;;;;;;;4.88;3.20;;;4.30;85.60;;;;;;5001202;28;20045;-86
2021/01/04 13:14:13;;;;;;;5.00;3.50;;;4.40;85.60;;;;;;5003018;28;20057;-88
2021/01/04 13:16:39;;;;;;;5.82;3.40;;;4.30;85.30;;;;;;5000725;28;20056;-86
2021/01/04 13:19:08;;;;;;;3.35;2.80;;;4.30;85.40;;;;;;5008344;28;20631;-87
2021/01/04 13:21:34;;;;;;;4.22;3.00;;;4.40;85.50;;;;;;5007192;28;20464;-87
2021/01/04 13:24:00;;;;;;;3.78;2.72;;;4.30;85.30;;;;;;5007092;28;20033;-88
2021/01/04 13:26:25;;;;;;;5.20;3.10;;;4.40;85.50;;;;;;5007180;28;20051;-88
2021/01/04 13:28:51;;;;;;;6.03;3.65;;;4.40;85.30;;;;;;5001466;28;20075;-90
2021/01/04 13:31:26;;;;;;;3.28;2.55;;;4.40;85.20;;;;;;5005631;28;20504;-87
2021/01/04 13:33:52;;;;;;;6.25;3.40;;;4.30;85.10;;;;;;5006117;28;20096;-89
2021/01/04 13:36:18;;;;;;;4.50;3.25;;;4.40;85.10;;;;;;5002553;28;20030;-87
2021/01/04 13:38:44;;;;;;;4.95;3.50;;;4.30;84.90;;;;;;5005140;28;20038;-86
2021/01/04 13:41:15;;;;;;;4.20;2.60;;;4.20;84.80;;;;;;5005875;28;20086;-88
2021/01/04 13:43:44;;;;;;;3.88;3.30;;;4.20;84.90;;;;;;5007960;28;20045;-86
2021/01/04 13:46:10;;;;;;;3.92;2.80;;;4.30;84.90;;;;;;4999775;28;20052;-87
2021/01/04 13:48:36;;;;;;;3.95;2.63;;;4.20;84.90;;;;;;5003012;28;20492;-86
2021/01/04 13:51:02;;;;;;;5.30;3.15;;;4.20;84.90;;;;;;5005720;28;20026;-87
2021/01/04 13:53:28;;;;;;;4.43;2.47;;;4.20;84.80;;;;;;5007183;28;20022;-86
2021/01/04 13:55:54;;;;;;;3.33;2.67;;;4.30;84.90;;;;;;5003246;28;20125;-88
2021/01/04 13:58:20;;;;;;;3.15;2.70;;;4.30;84.80;;;;;;5005270;28;20038;-87
2021/01/04 14:00:45;;;;;;;4.57;2.40;;;4.30;84.70;;;;;;5003737;28;20501;-91
2021/01/04 14:03:11;;;;;;;2.20;2.00;;;4.30;84.60;;;;;;4998639;28;20546;-90
2021/01/04 14:05:37;;;;;;;4.20;3.13;;;4.30;84.60;;;;;;5017074;28;20042;-89
2021/01/04 14:08:03;;;;;;;3.30;2.60;;;4.30;84.40;;;;;;5022139;28;20585;-90
2021/01/04 14:10:28;;;;;;;3.42;2.70;;;4.30;84.40;;;;;;5003716;28;20022;-89
2021/01/04 14:12:56;;;;;;;3.10;2.60;;;4.20;84.20;;;;;;5001061;28;20026;-89
2021/01/04 14:15:22;;;;;;;4.25;3.30;;;4.40;84.50;;;;;;5003241;28;20014;-89
2021/01/04 14:17:47;;;;;;;2.90;2.42;;;4.20;84.30;;;;;;5006631;28;20034;-89
2021/01/04 14:20:15;;;;;;;3.92;3.10;;;4.20;84.30;;;;;;5017446;28;20030;-90
2021/01/04 14:22:41;;;;;;;3.05;2.30;;;4.20;84.10;;;;;;5016668;28;20033;-91
2021/01/04 14:25:08;;;;;;;3.65;2.50;;;4.20;84.20;;;;;;5006585;28;20610;-90
2021/01/04 14:27:35;;;;;;;2.85;2.25;;;4.20;84.30;;;;;;5007981;28;20069;-90
2021/01/04 14:30:01;;;;;;;2.20;2.00;;;4.20;84.20;;;;;;5000893;28;20033;-90
2021/01/04 14:32:27;;;;;;;3.00;2.30;;;4.20;84.20;;;;;;5003895;28;20041;-90
2021/01/04 14:34:54;;;;;;;2.75;2.33;;;4.30;84.20;;;;;;5012392;28;20052;-89
2021/01/04 14:37:21;;;;;;;2.88;2.47;;;4.30;84.20;;;;;;4997337;28;20029;-91
2021/01/04 14:39:53;;;;;;;3.92;2.20;;;4.30;84.20;;;;;;5006245;28;20451;-90
2021/01/04 14:42:25;;;;;;;2.60;2.40;;;4.30;84.20;;;;;;5003507;28;20030;-87
2021/01/04 14:44:52;;;;;;;3.05;2.25;;;4.30;84.00;;;;;;5002545;28;20662;-86
2021/01/04 14:47:18;;;;;;;4.93;2.70;;;4.30;84.10;;;;;;5007798;28;20025;-89
2021/01/04 14:49:45;;;;;;;2.63;2.08;;;4.30;83.80;;;;;;5008646;28;20088;-89
2021/01/04 14:52:16;;;;;;;3.35;2.20;;;4.30;84.00;;;;;;5008697;28;20021;-89
2021/01/04 14:54:46;;;;;;;2.53;2.13;;;4.10;84.00;;;;;;5007699;28;20435;-89
2021/01/04 14:57:17;;;;;;;3.03;2.20;;;4.10;84.00;;;;;;5008430;28;21016;-89
2021/01/04 14:59:48;;;;;;;2.42;2.00;;;4.10;83.90;;;;;;5009894;28;20108;-89
2021/01/04 15:02:14;;;;;;;2.75;2.00;;;4.10;83.90;;;;;;5007730;28;20466;-91
2021/01/04 15:04:40;;;;;;;2.92;2.00;;;4.20;84.00;;;;;;5023318;28;20017;-87
2021/01/04 15:07:06;;;;;;;3.75;2.50;;;4.20;84.00;;;;;;5012478;28;20022;-86
2021/01/04 15:09:32;;;;;;;2.97;2.45;;;4.20;83.90;;;;;;5009049;28;20121;-87
2021/01/04 15:11:58;;;;;;;3.00;1.98;;;4.10;83.80;;;;;;5013594;28;20021;-90
2021/01/04 15:14:27;;;;;;;3.20;2.30;;;4.20;83.90;;;;;;5021760;28;20529;-91
2021/01/04 15:16:52;;;;;;;2.20;2.00;;;4.10;83.80;;;;;;5043262;28;20025;-90
2021/01/04 15:19:24;;;;;;;2.83;2.10;;;4.10;83.80;;;;;;5034434;28;20018;-90
2021/01/04 15:21:58;;;;;;;3.65;2.47;;;4.20;83.90;;;;;;5019736;28;20037;-90
2021/01/04 15:24:27;;;;;;;2.60;2.10;;;4.10;83.70;;;;;;5017934;28;20022;-91
2021/01/04 15:26:56;;;;;;;3.33;2.58;;;4.20;83.80;;;;;;5025927;28;20033;-92
2021/01/04 15:29:23;;;;;;;3.70;2.35;;;4.10;83.70;;;;;;5029593;28;20044;-90
2021/01/04 15:32:03;;;;;;;3.95;2.30;;;4.10;83.60;;;;;;5008691;28;20412;-91
2021/01/04 15:34:28;;;;;;;3.63;2.20;;;4.10;83.60;;;;;;5002188;28;20026;-89
2021/01/04 15:36:58;;;;;;;2.10;1.90;;;4.10;83.60;;;;;;5019043;28;20214;-88
2021/01/04 15:39:25;;;;;;;3.22;2.00;;;4.20;83.70;;;;;;5007332;28;20034;-90
2021/01/04 15:41:55;;;;;;;2.50;2.30;;;4.10;83.60;;;;;;5008693;28;20015;-90
2021/01/04 15:44:21;;;;;;;4.22;2.28;;;4.10;83.50;;;;;;5008431;28;20072;-88
2021/01/04 15:46:47;;;;;;;3.45;2.33;;;4.00;83.50;;;;;;5007815;28;20048;-91
2021/01/04 15:49:15;;;;;;;2.72;2.40;;;4.00;83.50;;;;;;5014709;28;20463;-91
2021/01/04 15:52:23;;;;;;;2.03;1.70;;;4.10;83.70;;;;;;5003165;28;20029;-92
2021/01/04 15:54:48;;;;;;;2.00;1.80;;;4.00;83.70;;;;;;4998041;28;20034;-90
2021/01/04 15:57:19;;;;;;;2.70;2.00;;;4.00;83.70;;;;;;5004015;28;20046;-90
2021/01/04 15:59:47;;;;;;;2.55;2.35;;;4.00;83.60;;;;;;5004087;28;20038;-90
2021/01/04 16:02:12;;;;;;;2.40;2.17;;;4.00;83.60;;;;;;5004403;28;20030;-89
2021/01/04 16:04:40;;;;;;;3.00;2.60;;;3.90;83.50;;;;;;5007268;28;20021;-90
2021/01/04 16:07:05;;;;;;;2.50;2.30;;;4.00;83.60;;;;;;4996880;28;20113;-88
2021/01/04 16:09:31;;;;;;;3.05;2.22;;;4.00;83.60;;;;;;5004361;28;20052;-91
2021/01/04 16:12:02;;;;;;;2.30;2.10;;;3.90;83.50;;;;;;5008508;28;20030;-91
2021/01/04 16:14:29;;;;;;;2.95;2.53;;;4.00;83.60;;;;;;5006278;28;20033;-90
2021/01/04 16:17:05;;;;;;;2.92;2.25;;;3.90;83.50;;;;;;5014200;28;20395;-89
2021/01/04 16:19:32;;;;;;;2.20;1.90;;;3.90;83.50;;;;;;5032497;28;20026;-92
2021/01/04 16:22:01;;;;;;;3.35;2.80;;;4.00;83.60;;;;;;5036362;28;20059;-95
2021/01/04 16:24:27;;;;;;;4.05;2.60;;;4.00;83.50;;;;;;5036042;28;20015;-90
2021/01/04 16:26:52;;;;;;;3.00;2.28;;;3.90;83.40;;;;;;5043731;28;20021;-91
2021/01/04 16:29:18;;;;;;;2.63;2.13;;;3.90;83.40;;;;;;5043910;28;20014;-90
2021/01/04 16:32:03;;;;;;;3.13;2.67;;;4.00;83.50;;;;;;5046452;28;20301;-88